Tiempo atmosférico en la estación meteorológica de Bardenas Reales, Base Aérea, Navarra (295 m.)



Fecha
DESCASC
Temp. máxima en grados centígrados (hora)
DESCASC
Temp. mínima en grados centígrados (hora)
DESCASC
Temp. media en grados centígrados
DESCASC
Racha de viento máxima en m/sg (hora)
DESCASC
Velocidad máxima media en intervalos de 10 minutos(hora)
DESCASC
Precipitaciones diarias en mm
DESCASC
Precipitaciones de 00:00 a 06:00 en mm
DESCASC
Precipitaciones de 06:00 a 12:00 en mm
DESCASC
Precipitaciones de 12:00 a 18:00 en mm
DESCASC
Precipitaciones de 18:00 a 24:00 en mm
DESCASC
19-09-2019 29.2 (17:20) 15.2 (07:50) 22.2 6.11 (16:10) 4.44 (00:20) 0 0 0 0 0
18-09-2019 28.7 (17:30) 17.5 (08:10) 23.1 11.39 (18:30) 8.89 (18:30) 6.4 6.2 0.2 0 0
17-09-2019 31.6 (18:40) 16.2 (00:00) 23.9 4.17 (13:30) 3.06 (20:10) 0 0 0 0 0
16-09-2019 29.2 (16:40) 16.2 (00:00) 22.7 7.5 (17:30) 5.28 (17:30) 0 0 0 0 0
15-09-2019 26.9 (13:30) 17.6 (00:00) 22.3 13.06 (15:40) 9.44 (15:40) 5.6 0.6 0.8 3.2 1
14-09-2019 29.2 (17:10) 13.6 (00:00) 21.4 11.11 (17:10) 6.11 (16:10) 0 0 0 0 0
13-09-2019 27.5 (14:20) 13.2 (00:00) 20.3 13.06 (14:50) 8.89 (14:50) 0 0 0 0 0
12-09-2019 30.2 (18:10) 13 (00:00) 21.6 12.22 (02:30) 8.61 (01:30) 0 0 0 0 0
11-09-2019 26.1 (16:10) 15.6 (00:00) 20.9 20.56 (03:40) 14.44 (03:40) 0 0 0 0 0
10-09-2019 20.3 (16:20) 13.1 (08:10) 16.7 20.28 (19:30) 14.17 (19:30) 0 0 0 0 0
09-09-2019 26.8 (16:20) 8 (08:10) 17.4 10.28 (19:30) 7.22 (21:40) 0 0 0 0 0
08-09-2019 24.8 (16:40) 14.3 (00:00) 19.5 13.61 (14:30) 9.17 (02:40) 0 0 0 0 0
07-09-2019 26.3 (16:40) 13.3 (00:00) 19.8 13.89 (10:30) 10.56 (19:00) 0 0 0 0 0
06-09-2019 23.3 (15:00) 13.9 (00:00) 18.6 17.5 (20:00) 12.5 (18:40) 0 0 0 0 0
05-09-2019 23 (15:30) 15.4 (00:00) 19.2 19.72 (17:50) 14.17 (19:50) 0 0 0 0 0
04-09-2019 29.5 (15:50) 12 (00:00) 20.8 17.5 (20:10) 12.78 (20:10) 0 0 0 0 0
03-09-2019 29.9 (18:10) 13.7 (00:00) 21.8 12.22 (00:50) 9.44 (00:50) 0 0 0 0 0
02-09-2019 24.9 (16:50) 15.8 (00:00) 20.3 16.11 (13:50) 11.39 (13:50) 0 0 0 0 0
01-09-2019 28.5 (15:20) 18.6 (00:00) 23.6 -- (--) -- (--) 0 0 0 0 0
31-08-2019 36.2 (16:20) 20.6 (00:00) 28.4 -- (--) -- (--) 0 0 0 0 0
30-08-2019 35.5 (18:20) 18.3 (00:00) 26.9 9.72 (14:40) 5.83 (21:50) 0 0 0 0 0
29-08-2019 34.4 (17:10) 17.3 (00:00) 25.9 6.94 (14:30) 4.17 (02:00) 0 0 0 0 0
28-08-2019 32.5 (19:20) 15.9 (00:00) 24.2 5.28 (22:10) 3.89 (22:20) 0 0 0 0 0
27-08-2019 29 (17:10) 17.5 (00:00) 23.3 8.33 (22:20) 5 (02:10) 0.8 0.8 0 0 0
26-08-2019 30.9 (17:30) 18.6 (00:00) 24.8 18.61 (23:00) 11.11 (23:10) 3.6 0 0 0 3.6
25-08-2019 34.7 (17:10) 20.1 (00:00) 27.4 -- (--) -- (--) 0 0 0 0 0
24-08-2019 34 (16:30) 18.7 (00:00) 26.4 -- (--) -- (--) 0 0 0 0 0
23-08-2019 32.8 (17:40) 12.3 (00:00) 22.5 9.72 (13:50) 5.83 (14:20) 0 0 0 0 0

Gráficas

Temp. máximas Temp. mínimas Temp. medias Precipitaciones Rachas de viento máximas Velocidades máximas media en intervalos de 10 minutos

Datos horarios

Fecha y hora oficial Temperatura (ºC) Velocidad del viento (km/h) Dirección del viento Racha (km/h) Dirección de racha Precipitación (mm) Presión (hPa) Tendencia (hPa) Humedad (%)
2019-09-21 23:00:00 21.3 17 Este 28 Sudeste 0 975.9 0.4 66
2019-09-21 22:00:00 22.5 11 Este 18 Sudeste 0 976.3 1.3 64
2019-09-21 21:00:00 22.9 7 Sudoeste 26 Oeste 0 975.9 0.9 60
2019-09-21 20:00:00 25.1 9 Sudoeste 20 Sudeste 0 975.5 0.2 51
2019-09-21 19:00:00 26 13 Sudeste 23 Sudeste 0 975 -0.8 45
2019-09-21 18:00:00 27 16 Sudeste 29 Sudeste 0 975 -1.5 40
2019-09-21 17:00:00 26.5 20 Sudeste -- -- 0 975.3 -1.8 44
2019-09-21 16:00:00 26.7 18 Sudeste 37 Este 0 975.8 -2 44
2019-09-21 15:00:00 25.5 19 Sudeste 39 Este 0 976.5 -1.6 49
2019-09-21 14:00:00 24.6 24 Este 34 Este 0 977.1 -1.4 56
2019-09-21 13:00:00 23.1 22 Este 36 Este 0 977.8 -0.7 64
2019-09-21 12:00:00 21.6 26 Este 38 Este 0 978.1 -0.4 70
2019-09-21 11:00:00 20.6 33 Este 47 Este 0 978.5 -0.4 75
2019-09-21 10:00:00 19.3 28 Este 42 Este 0 978.5 -0.1 81
2019-09-21 09:00:00 18.5 20 Este 28 Este 0 978.5 -0.6 88
2019-09-21 08:00:00 18.2 16 Este 33 Este 0 978.9 -0.6 88
2019-09-21 07:00:00 18.3 20 Este 29 Este 0 978.6 -1 88
2019-09-21 06:00:00 18.1 13 Sudeste 28 Sudeste 0 979.1 -0.5 88
2019-09-21 05:00:00 18.1 15 Sudeste 21 Sudeste 0 979.5 -0.2 87
2019-09-21 04:00:00 17.8 12 Sudeste 36 Este 0 979.6 -0.5 86
2019-09-21 03:00:00 17.7 21 Este 40 Este 0 979.6 -0.9 86
2019-09-21 02:00:00 17.9 19 Este 45 Este 0 979.7 -0.5 85
2019-09-21 01:00:00 19.1 31 Este 44 Este 0 980.1 0 80
2019-09-21 00:00:00 18.9 21 Este 39 Este 0.2 980.5 0 90
2019-09-20 23:00:00 18.8 28 Este 53 Sudeste 0.8 980.2 0.3 80
2019-09-20 22:00:00 19.5 19 Sudeste -- -- 0.8 980.1 1.4 87
2019-09-20 21:00:00 19.6 19 Sur 60 Sudeste 1.6 980.5 1.8 79
2019-09-20 20:00:00 23.9 -- -- -- -- 0 979.9 0.8 57
2019-09-20 19:00:00 26.2 30 Este 49 Este 0 978.7 -1.2 46
2019-09-20 18:00:00 26.6 35 Este 45 Este 0 978.7 -1.7 46
2019-09-20 17:00:00 26.9 34 Este 46 Este 0 979.1 -2.4 48
2019-09-20 16:00:00 27.9 35 Este 50 Este 0 979.9 -2.3 43
2019-09-20 15:00:00 27.6 34 Este 46 Este 0 980.4 -2.5 45
2019-09-20 14:00:00 26.7 27 Este 45 Este 0 981.5 -1.8 49
2019-09-20 13:00:00 24.9 32 Este 45 Este 0 982.2 -1.1 56
2019-09-20 12:00:00 23.4 25 Este 35 Este 0 982.9 0.1 60
2019-09-20 11:00:00 21.6 18 Este 27 Este 0 983.3 0.9 64
2019-09-20 10:00:00 19.8 18 Este 28 Este 0 983.3 1.3 70
2019-09-20 09:00:00 18.2 14 Sudeste 22 Este 0 982.8 0.7 78
2019-09-20 08:00:00 17.1 15 Sudeste 19 Sudeste 0 982.4 0.1 82
2019-09-20 07:00:00 17.6 15 Sudeste 20 Sudeste 0 982 -0.3 80
2019-09-20 06:00:00 18 14 Este 18 Sudeste 0 982.1 -0.1 79
2019-09-20 05:00:00 18.5 15 Sudeste 23 Este 0 982.3 0.2 78
2019-09-20 04:00:00 19.1 20 Sudeste 33 Este 0 982.3 0.5 77
2019-09-20 03:00:00 19.6 24 Este 40 Este 0 982.2 0.2 76
2019-09-20 02:00:00 20.4 29 Este 46 Este 0 982.1 0.3 72
2019-09-20 01:00:00 21.3 29 Este 44 Este 0 981.8 0.3 67
2019-09-20 00:00:00 20.6 2 Sur 7 Este 0 982 1.1 70
2019-09-19 23:00:00 21.8 3 Este 5 Sudeste 0 981.8 1.5 66
2019-09-19 22:00:00 22.9 3 Sudoeste 5 Noroeste 0 981.5 1.1 63
2019-09-19 21:00:00 23.3 4 Nordeste 10 Noroeste 0 980.9 0.6 60
2019-09-19 20:00:00 24.6 9 Noroeste 12 Oeste 0 980.3 -0.2 56
2019-09-19 19:00:00 26.5 12 Oeste 15 Oeste 0 980.4 -0.8 47
2019-09-19 18:00:00 27.6 5 Nordeste 15 Este 0 980.3 -1.7 43
2019-09-19 17:00:00 28.5 5 Norte 22 Este 0 980.5 -2.4 42
2019-09-19 16:00:00 27.9 6 Este 20 Sudeste 0 981.2 -2.3 42
2019-09-19 15:00:00 26.9 7 Este 21 Este 0 982 -2 42
2019-09-19 14:00:00 24.9 6 Norte 14 Nordeste 0 982.9 -1 52
2019-09-19 13:00:00 22.7 6 Oeste 13 Noroeste 0 983.5 -0.3 61
2019-09-19 12:00:00 20.9 10 Noroeste 15 Oeste 0 984 0.6 66
2019-09-19 11:00:00 19.5 4 Noroeste 10 Noroeste 0 983.9 0.8 75
2019-09-19 10:00:00 16.9 5 Sudoeste 7 Sudoeste 0 983.8 0.9 85
2019-09-19 09:00:00 16 2 Noroeste 5 Norte 0 983.4 0.8 88
2019-09-19 08:00:00 15.2 4 Oeste 12 Sudoeste 0 983.1 0.5 89
2019-09-19 07:00:00 15.9 7 Sudoeste 14 Oeste 0 982.9 0.2 87
2019-09-19 06:00:00 16.2 7 Oeste 9 Oeste 0 982.6 -0.4 86
2019-09-19 05:00:00 17.1 4 Oeste 6 Noroeste 0 982.6 -0.4 84
2019-09-19 04:00:00 17.4 5 Noroeste 12 Noroeste 0 982.7 -0.2 83
2019-09-19 03:00:00 17.9 9 Noroeste 16 Noroeste 0 983 0.2 82
2019-09-19 02:00:00 18.8 13 Noroeste 20 Oeste 0 983 0.4 81
2019-09-19 01:00:00 19.3 3 Noroeste 22 Noroeste 0 982.9 0.8 79
2019-09-19 00:00:00 19.7 13 Oeste 16 Noroeste 0 982.8 1.2 79
2019-09-18 23:00:00 20.6 2 Sudeste 19 Noroeste 0 982.6 1.6 73
2019-09-18 22:00:00 21.2 14 Noroeste 21 Noroeste 0 982.1 1.8 66
2019-09-18 21:00:00 22.7 16 Oeste 24 Oeste 0 981.6 1.6 61
2019-09-18 20:00:00 24.4 20 Oeste 32 Noroeste 0 981 1.1 56
2019-09-18 19:00:00 26.3 21 Oeste 41 Oeste 0 980.3 -0.2 47
2019-09-18 18:00:00 28.3 17 Oeste 30 Oeste 0 980 -1 43
2019-09-18 17:00:00 28.5 11 Sudoeste 21 Oeste 0 979.9 -1.6 41
2019-09-18 16:00:00 28.3 10 Sur 20 Sudoeste 0 980.5 -1.5 43
2019-09-18 15:00:00 27.4 11 Oeste 22 Sudoeste 0 981 -1.3 46
2019-09-18 14:00:00 26.2 7 Oeste 14 Oeste 0 981.5 -1 49
2019-09-18 13:00:00 25.4 4 Nordeste 13 Oeste 0 982 0 55
2019-09-18 12:00:00 23.6 7 Noroeste 20 Noroeste 0 982.3 0.8 65
2019-09-18 11:00:00 22.1 15 Noroeste 27 Noroeste 0 982.5 1.7 67
2019-09-18 10:00:00 20.4 5 Oeste 12 Oeste 0 982 1.5 76
2019-09-18 09:00:00 18.7 4 Sudoeste 10 Noroeste 0 981.5 0.9 83
2019-09-18 08:00:00 17.6 6 Noroeste 12 Noroeste 0 980.8 0.4 85
2019-09-18 07:00:00 17.7 9 Oeste 23 Noroeste 0.2 980.5 0.1 86
2019-09-18 06:00:00 17.6 24 Noroeste 36 Noroeste 6.2 980.6 0 89
2019-09-18 05:00:00 20.1 12 Oeste 28 Noroeste 0 980.4 -0.2 74
2019-09-18 04:00:00 19.9 8 Noroeste 15 Noroeste 0 980.4 -0.7 65
2019-09-18 03:00:00 21.3 4 Norte 24 Sudoeste 0 980.6 0.1 58
2019-09-18 02:00:00 22.6 23 Sudoeste 35 Sudoeste 0 980.6 0.7 53
2019-09-18 01:00:00 22.5 16 Sudoeste 36 Sudoeste 0 981.1 1.8 64
2019-09-18 00:00:00 21.6 5 Este 15 Sudoeste 0 980.5 1.5 62
2019-09-17 23:00:00 22.4 9 Sudoeste 12 Sudoeste 0 979.9 1 55
2019-09-17 22:00:00 24 4 Oeste 9 Nordeste 0 979.3 0.4 50
2019-09-17 21:00:00 25.3 4 Sur 13 Oeste 0 979 -0.4 47
2019-09-15 18:00:00 21.4 10 Norte 27 Norte 0 985.9 -0.6 72
2019-09-15 17:00:00 20.5 18 Norte 23 Norte 1.2 986.4 -0.1 75
2019-09-15 16:00:00 19.5 20 Sudoeste 47 Sudoeste 2 987.4 0.3 74
2019-09-15 15:00:00 25.7 20 Sudoeste 27 Sudeste 0 986.5 -1.1 47
2019-09-15 14:00:00 26.3 15 Sudeste 29 Este 0 986.5 -1.6 36
2019-09-15 13:00:00 25.9 18 Este 24 Este 0 987.1 -0.9 35
2019-09-15 12:00:00 25.2 8 Nordeste 15 Este 0 987.6 -0.1 43
2019-09-15 11:00:00 22.1 4 Oeste 8 Noroeste 0 988.1 0.1 68
2019-09-15 10:00:00 20.2 2 Sudoeste 9 Sudoeste 0 988 0.3 74
2019-09-15 09:00:00 19 0 Calma 9 Norte 0 987.7 -0.1 82
2019-09-15 08:00:00 18 3 Nordeste 10 Norte 0 988 0.4 83
2019-09-15 07:00:00 17.7 5 Norte 10 Nordeste 0.8 987.7 -0.1 83
2019-09-15 06:00:00 18.4 4 Sudeste 12 Este 0 987.8 -0.3 75
2019-09-15 05:00:00 18.5 3 Noroeste 14 Este 0 987.6 -0.8 73
2019-09-15 04:00:00 19.4 6 Este 12 Este 0 987.8 -0.7 68
2019-09-15 03:00:00 19.5 5 Nordeste 13 Este 0 988.1 -0.4 70
2019-09-15 02:00:00 19.2 7 Nordeste 12 Este 0 988.4 -0.2 73
2019-09-15 01:00:00 20.4 10 Este 16 Este 0.6 988.5 0.1 67
2019-09-15 00:00:00 20.9 4 Este 13 Sur 0 988.5 0.3 59
2019-09-14 23:00:00 20.8 6 Este 15 Este 0 988.6 0.7 54
2019-09-14 22:00:00 21.4 8 Sudeste 10 Sudeste 0 988.4 0.8 50
2019-09-14 21:00:00 24.2 5 Sur 10 Sudeste 0 988.2 0.5 42
2019-09-14 20:00:00 25.8 10 Sudeste 22 Sur 0 987.9 0.1 38
2019-09-14 19:00:00 26.9 7 Sudeste 24 Sur 0 987.6 -0.6 38
2019-09-14 18:00:00 28.1 15 Sudeste 40 Sudeste 0 987.7 -1.1 35
2019-09-14 17:00:00 28.9 22 Sudeste 35 Sudeste 0 987.8 -2.1 28
2019-09-14 16:00:00 28.2 15 Este 33 Sudeste 0 988.2 -2.4 34
2019-09-14 15:00:00 27.1 20 Este 31 Este 0 988.8 -2.5 39
2019-09-14 14:00:00 25.6 18 Sudeste 28 Este 0 989.9 -1.7 44
2019-09-14 13:00:00 24.4 11 Este 23 Este 0 990.6 -1 47
2019-09-14 12:00:00 23.1 4 Nordeste 9 Este 0 991.3 -0.2 59
2019-09-14 11:00:00 20 4 Sudeste 7 Sur 0 991.6 0.8 74
2019-09-14 10:00:00 17.3 4 Sudoeste 6 Sudoeste 0 991.6 0.6 84
2019-09-14 09:00:00 14.8 3 Sudoeste 8 Sudeste 0 991.5 0.5 88
2019-09-14 08:00:00 14.3 2 Noroeste 8 Norte 0 990.8 -0.6 89
2019-09-14 07:00:00 15.2 6 Norte 7 Noroeste 0 991 -0.6 88
2019-09-14 06:00:00 16.2 3 Este 13 Este 0 991 -1 87
2019-09-14 05:00:00 17.1 7 Este 13 Este 0 991.4 -1.1 86
2019-09-14 04:00:00 17.6 9 Sudeste 21 Sudeste 0 991.6 -0.9 85
2019-09-14 03:00:00 18.1 14 Este 22 Este 0 992 -0.4 81
2019-09-14 02:00:00 18 11 Este 23 Este 0 992.5 0.7 78
2019-09-14 01:00:00 20.2 9 Este 16 Este 0 992.5 1.1 58
2019-09-14 00:00:00 19 7 Sudeste 14 Este 0 992.4 1.3 59
2019-09-13 23:00:00 19.7 2 Oeste 9 Noroeste 0 991.8 1.1 55
2019-09-13 22:00:00 21 8 Oeste 9 Oeste 0 991.4 0.5 53
2019-09-13 21:00:00 22.5 3 Norte 18 Sudoeste 0 991.1 0 50
2019-09-13 20:00:00 23.4 13 Sudoeste 20 Sudoeste 0 990.7 -1.4 48
2019-09-13 19:00:00 25.1 12 Sudeste 18 Sudeste 0 990.9 -1.4 37
2019-09-13 18:00:00 25.3 11 Este 31 Sudeste 0 991.1 -1 38
2019-09-13 17:00:00 23.8 22 Sudeste 36 Sudeste 0 992.1 -0.1 42
2019-09-13 16:00:00 24.2 29 Sudeste 42 Sur 0 992.3 0.2 38
2019-09-13 15:00:00 26.3 25 Sudeste 47 Sudeste 0 992.1 -0.8 31
2019-09-13 14:00:00 26.6 9 Sudeste 21 Este 0 992.2 -0.8 33
2019-09-13 13:00:00 24.6 5 Oeste 15 Oeste 0 992.1 -0.8 41
2019-09-13 12:00:00 23.5 10 Oeste 18 Oeste 0 992.9 0.1 45
2019-09-13 11:00:00 21 6 Sudoeste 16 Oeste 0 993 -0.1 55
2019-09-13 10:00:00 18 8 Oeste 12 Sudoeste 0 992.9 -0.1 65
2019-09-13 09:00:00 14.7 2 Norte 5 Norte 0 992.8 -0.3 70
2019-09-13 08:00:00 13.2 2 Sudoeste 8 Noroeste 0 993.1 0.2 75
2019-09-13 07:00:00 13.6 3 Oeste 8 Noroeste 0 993 0.4 73
2019-09-13 06:00:00 14.1 0 Calma 8 Norte 0 993.1 0.1 72
2019-09-13 05:00:00 14.7 5 Noroeste 7 Oeste 0 992.9 0.1 71
2019-09-13 04:00:00 15.5 5 Norte 10 Noroeste 0 992.6 -0.1 72
2019-09-13 03:00:00 16.5 5 Noroeste 8 Noroeste 0 993 0.7 70
2019-09-13 02:00:00 17.3 4 Norte 11 Este 0 992.8 0.8 68
2019-09-13 01:00:00 17.6 7 Norte 13 Sudoeste 0 992.7 1 63
2019-09-13 00:00:00 19.8 9 Sudoeste 14 Noroeste 0 992.3 0.8 55
2019-09-12 23:00:00 21.5 8 Noroeste 13 Noroeste 0 992 0.7 50
2019-09-12 22:00:00 22.5 10 Norte 19 Noroeste 0 991.7 0.4 42
2019-09-12 21:00:00 25 9 Oeste 10 Oeste 0 991.5 0.3 33
2019-09-12 20:00:00 28.4 6 Noroeste 17 Noroeste 0 991.3 -0.3 28
2019-09-12 19:00:00 30.1 4 Sudoeste 13 Oeste 0 991.3 -1 23
2019-09-12 18:00:00 29.9 7 Sudoeste 21 Noroeste 0 991.2 -1.9 25
2019-09-12 17:00:00 28.9 5 Norte 18 Noroeste 0 991.6 -2.3 26
2019-09-12 16:00:00 28.2 6 Oeste 19 Oeste 0 992.3 -2.4 30
2019-09-12 15:00:00 27.4 8 Sudoeste 22 Oeste 0 993.1 -2 31
2019-09-12 14:00:00 25.2 7 Noroeste 21 Oeste 0 993.9 -1.3 35
2019-09-12 13:00:00 23.5 11 Oeste 22 Oeste 0 994.7 0.2 41
2019-09-12 12:00:00 21.3 16 Oeste 28 Oeste 0 995.1 1.4 47
2019-09-12 11:00:00 19 17 Noroeste 27 Noroeste 0 995.2 1.5 54
2019-09-12 10:00:00 17.2 23 Noroeste 31 Noroeste 0 994.5 1.5 59
2019-09-12 09:00:00 15.1 17 Noroeste 25 Noroeste 0 993.7 0.7 72
2019-09-12 08:00:00 13.1 13 Noroeste 21 Noroeste 0 993.7 0.8 77
2019-09-12 07:00:00 13.7 17 Noroeste 26 Noroeste 0 993 0.4 76
2019-09-12 06:00:00 14.5 21 Noroeste 33 Noroeste 0 993 0.6 72
2019-09-12 05:00:00 15.2 23 Oeste 32 Oeste 0 992.9 0.5 68
2019-09-12 04:00:00 15.3 24 Noroeste 40 Noroeste 0 992.6 0.4 66
2019-09-12 03:00:00 15.6 28 Noroeste 44 Noroeste 0 992.4 0.2 66
2019-09-12 02:00:00 15.7 27 Oeste 44 Oeste 0 992.4 0.6 66
2019-09-12 01:00:00 16.1 31 Oeste 41 Oeste 0 992.2 1.3 65
2019-09-12 00:00:00 16.5 33 Noroeste 45 Oeste 0 992.2 2.4 63
2019-09-11 23:00:00 17 32 Noroeste 46 Noroeste 0 991.8 2.9 58
2019-09-11 22:00:00 17.9 31 Oeste 50 Noroeste 0 990.9 2.8 55
2019-09-11 21:00:00 19.2 35 Noroeste 50 Noroeste 0 989.8 2.1 50
2019-09-11 20:00:00 21.3 34 Noroeste 60 Noroeste 0 988.9 1.4 41
2019-09-11 19:00:00 22.9 45 Noroeste 60 Noroeste 0 988.1 1 35
2019-09-11 18:00:00 24.4 41 Noroeste 58 Noroeste 0 987.7 0.9 31
2019-09-11 17:00:00 25.4 39 Noroeste 60 Noroeste 0 987.5 0.5 28
2019-09-11 16:00:00 25.8 37 Noroeste 58 Noroeste 0 987.1 -0.1 25
2019-09-11 15:00:00 25.8 43 Noroeste 57 Noroeste 0 986.8 -0.4 25
2019-09-11 14:00:00 25.5 43 Noroeste 58 Oeste 0 987 0 25
2019-09-11 13:00:00 24.8 30 Noroeste 53 Noroeste 0 987.2 1 25
2019-09-11 12:00:00 23.7 34 Noroeste 49 Noroeste 0 987.2 1.4 26
2019-09-11 11:00:00 21.9 37 Noroeste 50 Noroeste 0 987 2.1 31
2019-09-11 10:00:00 19.4 37 Noroeste 55 Noroeste 0 986.2 1.7 42
2019-09-11 09:00:00 17.1 38 Noroeste 52 Noroeste 0 985.8 1.6 55
2019-09-11 08:00:00 16.3 35 Noroeste 55 Noroeste 0 984.9 1.3 60
2019-09-11 07:00:00 16.4 38 Noroeste 52 Noroeste 0 984.5 1.4 61
2019-09-11 06:00:00 16.2 33 Noroeste 53 Noroeste 0 984.2 1.1 63
2019-09-11 05:00:00 16.2 39 Noroeste 57 Noroeste 0 983.6 0.1 64
2019-09-11 04:00:00 16 45 Noroeste 74 Noroeste 0 983.1 -0.6 64
2019-09-11 03:00:00 16.1 43 Noroeste 62 Noroeste 0 983.1 -0.3 63
2019-09-11 02:00:00 16.3 46 Noroeste 65 Noroeste 0 983.5 0.4 63
2019-09-11 01:00:00 15.8 42 Noroeste 61 Noroeste 0 983.7 1.3 66
2019-09-11 00:00:00 15.6 38 Noroeste 56 Noroeste 0 983.4 1.7 63
2019-09-10 23:00:00 15.6 37 Noroeste 58 Noroeste 0 983.1 2.9 65
2019-09-10 22:00:00 15.8 45 Noroeste 61 Noroeste 0 982.4 3.3 65
2019-09-10 21:00:00 16 42 Noroeste 62 Noroeste 0 981.7 3.1 66
2019-09-10 20:00:00 17.7 48 Noroeste 73 Noroeste 0 980.2 2 50
2019-09-10 19:00:00 17.9 43 Noroeste 60 Noroeste 0 979.1 0.7 50
2019-09-10 18:00:00 18.8 45 Noroeste 65 Noroeste 0 978.6 -0.2 45
2019-09-10 17:00:00 19.7 45 Noroeste 63 Noroeste 0 978.2 -1.1 42
2019-09-10 16:00:00 19.7 41 Noroeste 60 Noroeste 0 978.4 -1.1 42
2019-09-10 15:00:00 18.7 40 Noroeste 58 Noroeste 0 978.8 -1 43
2019-09-10 14:00:00 17.7 37 Noroeste 55 Oeste 0 979.3 -0.6 52
2019-09-10 13:00:00 17.2 36 Noroeste 54 Noroeste 0 979.5 -0.2 49
2019-09-10 12:00:00 16.3 40 Noroeste 58 Noroeste 0 979.8 0.3 53
2019-09-10 11:00:00 16.2 45 Noroeste 63 Oeste 0 979.9 0.4 53
2019-09-10 10:00:00 14.9 29 Noroeste 44 Oeste 0 979.7 1 57
2019-09-10 09:00:00 14.2 30 Noroeste 40 Oeste 0 979.5 0.7 60
2019-09-10 08:00:00 13.3 16 Noroeste 36 Noroeste 0 979.5 1.1 66
2019-09-10 07:00:00 13.9 26 Oeste 39 Noroeste 0 978.7 0.1 67
2019-09-10 06:00:00 14.8 20 Noroeste 39 Noroeste 0 978.8 0.1 61
2019-09-10 05:00:00 15.4 21 Noroeste 44 Noroeste 0 978.4 -0.7 61
2019-09-10 04:00:00 16.6 34 Noroeste 48 Noroeste 0 978.6 -0.6 58
2019-09-10 03:00:00 17.4 19 Noroeste 28 Noroeste 0 978.7 -0.3 58
2019-09-10 02:00:00 17.4 18 Noroeste 31 Noroeste 0 979.1 0.2 57
2019-09-10 01:00:00 17.6 21 Noroeste 30 Noroeste 0 979.2 0.7 55
2019-09-10 00:00:00 18 20 Noroeste 27 Noroeste 0 979 1.2 51
2019-09-09 23:00:00 18.6 12 Noroeste 26 Noroeste 0 978.9 1.8 46
2019-09-09 22:00:00 19.6 18 Noroeste 36 Noroeste 0 978.5 1.7 44
2019-09-09 21:00:00 20.5 17 Noroeste 27 Noroeste 0 977.8 0.9 49
2019-09-09 20:00:00 22.4 20 Noroeste 37 Noroeste 0 977.1 -0.3 44
2019-09-09 19:00:00 24.9 16 Oeste 27 Noroeste 0 976.8 -1.7 29
2019-09-09 18:00:00 25.7 11 Oeste 22 Noroeste 0 976.9 -2.8 29
2019-09-09 17:00:00 26.3 8 Oeste 15 Sudoeste 0 977.4 -3.3 28
2019-09-09 16:00:00 26 6 Oeste 13 Oeste 0 978.5 -3 27
2019-09-09 15:00:00 24.6 5 Sudoeste 16 Oeste 0 979.7 -2.7 28
2019-09-09 14:00:00 22.3 7 Sudoeste 13 Sudoeste 0 980.7 -2 32
2019-09-09 13:00:00 20.6 7 Noroeste 12 Oeste 0 981.5 -1.7 38
2019-09-09 12:00:00 18.5 4 Sur 8 Oeste 0 982.4 -0.7 45
2019-09-09 11:00:00 16.5 4 Sur 9 Sudoeste 0 982.7 -0.3 53
2019-09-09 10:00:00 14.1 2 Este 6 Sudoeste 0 983.2 0.4 63
2019-09-09 09:00:00 10.9 3 Este 5 Este 0 983.1 0.1 72
2019-09-09 08:00:00 8.3 0 Calma 6 Este 0 983 -0.4 77
2019-09-09 07:00:00 9.5 3 Norte 13 Noroeste 0 982.8 -0.8 75
2019-09-09 06:00:00 11.2 10 Norte 19 Oeste 0 983 -0.8 73
2019-09-09 05:00:00 11.7 13 Oeste 26 Oeste 0 983.4 -0.5 72
2019-09-09 04:00:00 11.6 14 Noroeste 23 Oeste 0 983.6 -0.5 71
2019-09-09 03:00:00 13.3 21 Oeste 32 Oeste 0 983.8 -0.4 64
2019-09-09 02:00:00 13.8 24 Oeste 33 Oeste 0 983.9 0 62
2019-09-09 01:00:00 14.5 23 Oeste 30 Oeste 0 984.1 0.6 63
2019-09-09 00:00:00 15 15 Noroeste 31 Noroeste 0 984.2 1.1 61
2019-09-08 23:00:00 16.2 24 Noroeste 35 Noroeste 0 983.9 1.5 56
2019-09-08 22:00:00 17.6 24 Noroeste 39 Noroeste 0 983.5 1.2 47
2019-09-08 21:00:00 19 27 Noroeste 41 Noroeste 0 983.1 0.9 38
2019-09-08 20:00:00 21.3 33 Noroeste 47 Noroeste 0 982.4 -0.3 32
2019-09-08 19:00:00 23.1 30 Noroeste 43 Noroeste 0 982.3 -0.9 28
2019-09-08 18:00:00 24.2 27 Noroeste 44 Noroeste 0 982.2 -1.4 32
2019-09-08 17:00:00 24.6 27 Noroeste 48 Noroeste 0 982.7 -1.2 31
2019-09-08 16:00:00 24.3 30 Noroeste 48 Noroeste 0 983.2 -0.9 31
2019-09-08 15:00:00 23.6 32 Noroeste 49 Noroeste 0 983.6 -1.3 33
2019-09-08 14:00:00 22.9 31 Noroeste 49 Oeste 0 983.9 -1.5 40
2019-09-08 13:00:00 21.8 33 Noroeste 46 Noroeste 0 984.1 -1.3 49
2019-09-08 12:00:00 20.4 30 Noroeste 45 Oeste 0 984.9 -0.6 54
2019-09-08 11:00:00 19.3 26 Noroeste 41 Noroeste 0 985.4 0.3 59
2019-09-08 10:00:00 17.9 31 Noroeste 40 Noroeste 0 985.4 0.4 64
2019-09-08 09:00:00 16.5 7 Norte 18 Oeste 0 985.5 0.7 69
2019-09-08 08:00:00 14.4 12 Noroeste 32 Noroeste 0 985.1 0.4 75
2019-09-08 07:00:00 14.6 21 Oeste 35 Oeste 0 985 -0.1 74
2019-09-08 06:00:00 14.7 24 Oeste 36 Noroeste 0 984.8 -0.4 72
2019-09-08 05:00:00 14.9 25 Noroeste 32 Oeste 0 984.7 -0.7 72
2019-09-08 04:00:00 15.3 23 Oeste 43 Noroeste 0 985.1 -0.6 70
2019-09-08 03:00:00 15.9 30 Oeste 47 Oeste 0 985.2 -0.4 70
2019-09-08 02:00:00 15.5 29 Oeste 44 Oeste 0 985.4 -0.2 68
2019-09-08 01:00:00 15.9 30 Oeste 47 Noroeste 0 985.7 0.6 67
2019-09-08 00:00:00 16.2 34 Noroeste 47 Noroeste 0 985.6 1.3 63
2019-09-07 23:00:00 16.6 24 Oeste 38 Noroeste 0 985.6 1.8 63
2019-09-07 22:00:00 17.3 30 Noroeste 49 Noroeste 0 985.1 1.6 57
2019-09-07 21:00:00 18.8 32 Noroeste 49 Noroeste 0 984.3 0.9 48
2019-09-07 20:00:00 21.1 35 Noroeste 49 Noroeste 0 983.8 0.1 41
2019-09-07 19:00:00 23.2 38 Noroeste 48 Noroeste 0 983.5 -0.9 35
2019-09-07 18:00:00 25.2 33 Noroeste 45 Noroeste 0 983.4 -1.8 27
2019-09-07 17:00:00 25.8 30 Noroeste 42 Noroeste 0 983.7 -2.3 25
2019-09-07 16:00:00 25.5 18 Noroeste 34 Oeste 0 984.4 -2.2 25
2019-09-07 15:00:00 24.3 17 Noroeste 40 Noroeste 0 985.2 -2 27
2019-09-07 14:00:00 22.8 24 Noroeste -- -- 0 986 -1.5 30
2019-09-07 13:00:00 21.8 22 Oeste 40 Noroeste 0 986.6 -1.1 34
2019-09-07 12:00:00 20.4 25 Noroeste 43 Oeste 0 987.2 -0.4 38
2019-09-07 11:00:00 18.4 31 Noroeste 50 Oeste 0 987.5 0.2 45
2019-09-07 10:00:00 16.4 31 Noroeste 43 Noroeste 0 987.7 0.7 54
2019-09-07 09:00:00 14.5 29 Oeste 39 Oeste 0 987.6 0.6 63
2019-09-07 08:00:00 13.4 27 Oeste 39 Oeste 0 987.3 0.2 67
2019-09-07 07:00:00 13.4 25 Oeste 39 Oeste 0 987 -0.2 67
2019-09-07 06:00:00 13.7 27 Oeste 40 Oeste 0 987 -0.4 66
2019-09-07 05:00:00 14 27 Oeste 42 Oeste 0 987.1 -0.4 65
2019-09-07 04:00:00 14.2 28 Oeste 45 Oeste 0 987.2 -0.3 64
2019-09-07 03:00:00 14.6 31 Oeste 48 Noroeste 0 987.4 -0.1 63
2019-09-07 02:00:00 14.9 32 Oeste 49 Oeste 0 987.5 0 64
2019-09-07 01:00:00 15.1 33 Oeste 48 Oeste 0 987.5 0.5 62
2019-09-07 00:00:00 15.3 35 Oeste 50 Oeste 0 987.5 1.3 62
2019-09-06 23:00:00 15.7 37 Noroeste 56 Oeste 0 987.5 1.9 61
2019-09-06 22:00:00 16.2 41 Noroeste 57 Oeste 0 987 1.6 57
2019-09-06 21:00:00 17.1 40 Noroeste 63 Noroeste 0 986.2 0.8 52
2019-09-06 20:00:00 18.9 44 Noroeste 63 Noroeste 0 985.6 0.1 46
2019-09-06 19:00:00 20.4 42 Noroeste 60 Noroeste 0 985.4 -0.3 40
2019-09-06 18:00:00 21.6 43 Noroeste 59 Noroeste 0 985.4 -0.6 35
2019-09-06 17:00:00 22.4 40 Noroeste 58 Noroeste 0 985.5 -0.7 31
2019-09-06 16:00:00 22.9 39 Noroeste 54 Oeste 0 985.7 -0.8 30
2019-09-06 15:00:00 23.1 35 Oeste 53 Oeste 0 986 -1 27
2019-09-06 14:00:00 22.5 34 Noroeste 50 Noroeste 0 986.2 -1.1 30
2019-09-06 13:00:00 21.6 35 Oeste 48 Noroeste 0 986.5 -0.8 33
2019-09-06 12:00:00 20.7 29 Noroeste 46 Noroeste 0 987 -0.4 38
2019-09-06 11:00:00 18.9 33 Noroeste 51 Noroeste 0 987.3 0.1 45
2019-09-06 10:00:00 17.1 33 Noroeste 45 Noroeste 0 987.3 0.2 54
2019-09-06 09:00:00 15.1 28 Noroeste 40 Oeste 0 987.4 0.3 63
2019-09-06 08:00:00 14.1 27 Oeste 40 Oeste 0 987.2 -0.1 66
2019-09-06 07:00:00 14.1 28 Oeste 42 Oeste 0 987.1 -0.3 65
2019-09-06 06:00:00 14.2 32 Oeste 48 Noroeste 0 987.1 -0.3 65
2019-09-06 05:00:00 14.4 32 Noroeste 48 Oeste 0 987.3 -0.1 64
2019-09-06 04:00:00 14.5 32 Noroeste 53 Noroeste 0 987.4 -0.1 63
2019-09-06 03:00:00 14.8 37 Noroeste 55 Noroeste 0 987.4 -0.1 63
2019-09-06 02:00:00 14.9 37 Noroeste 56 Noroeste 0 987.4 -0.3 65
2019-09-06 01:00:00 15.2 36 Noroeste 54 Noroeste 0 987.5 0.1 64
2019-09-06 00:00:00 15.4 39 Noroeste 55 Noroeste 0 987.5 0.5 63
2019-09-05 23:00:00 15.6 35 Noroeste 62 Noroeste 0 987.7 1.2 60
2019-09-05 22:00:00 16.3 43 Noroeste 60 Noroeste 0 987.4 0.8 57
2019-09-05 21:00:00 17.3 40 Noroeste 65 Noroeste 0 987 0.7 53
2019-09-05 20:00:00 19.1 42 Noroeste 68 Noroeste 0 986.5 -0.1 45
2019-09-05 19:00:00 20.7 44 Noroeste 63 Noroeste 0 986.6 -0.4 41
2019-09-05 18:00:00 21.6 49 Noroeste 71 Noroeste 0 986.3 -1.3 38
2019-09-05 17:00:00 22.2 47 Noroeste 65 Noroeste 0 986.6 -1.3 35
2019-09-05 16:00:00 22.6 42 Noroeste 62 Noroeste 0 987 -0.9 34
2019-09-05 15:00:00 22 42 Noroeste 60 Noroeste 0 987.6 -0.6 35
2019-09-05 14:00:00 21.7 42 Noroeste 62 Noroeste 0 987.9 -0.8 38
2019-09-05 13:00:00 21.3 47 Noroeste 69 Noroeste 0 987.9 -0.8 38
2019-09-05 12:00:00 20.4 48 Noroeste 67 Noroeste 0 988.2 -0.3 40
2019-09-05 11:00:00 19.4 36 Noroeste 55 Noroeste 0 988.7 0.8 46
2019-09-05 10:00:00 18.4 34 Noroeste 51 Noroeste 0 988.7 1.8 51
2019-09-05 09:00:00 17.3 30 Noroeste 50 Noroeste 0 988.5 2.3 61
2019-09-05 08:00:00 16.4 28 Noroeste 51 Noroeste 0 987.9 1.6 68
2019-09-05 07:00:00 17.3 37 Noroeste 50 Noroeste 0 986.9 0.6 67
2019-09-05 06:00:00 16.8 32 Oeste 45 Oeste 0 986.2 -0.3 70
2019-09-05 05:00:00 16.9 31 Noroeste 44 Noroeste 0 986.3 -0.2 65
2019-09-05 04:00:00 16.4 27 Noroeste 39 Oeste 0 986.3 -0.7 65
2019-09-05 03:00:00 16.4 21 Oeste 49 Noroeste 0 986.5 -0.4 68
2019-09-05 02:00:00 16.9 33 Noroeste 45 Noroeste 0 986.5 -0.1 65
2019-09-05 01:00:00 17.4 31 Oeste 48 Oeste 0 987 0.9 62
2019-09-05 00:00:00 17.8 31 Noroeste 55 Noroeste 0 986.9 1.6 61
2019-09-04 23:00:00 18.5 39 Noroeste 58 Noroeste 0 986.6 2.2 60
2019-09-04 22:00:00 19.2 37 Noroeste 58 Noroeste 0 986.1 2.4 57
2019-09-04 21:00:00 20.5 41 Noroeste 63 Noroeste 0 985.3 1.8 53
2019-09-04 20:00:00 22.6 44 Noroeste 60 Noroeste 0 984.4 1.1 46
2019-09-04 19:00:00 24.5 45 Noroeste 61 Noroeste 0 983.7 0.2 41
2019-09-04 18:00:00 26.3 41 Noroeste 59 Noroeste 0 983.5 -0.5 37
2019-09-04 17:00:00 27.9 37 Noroeste 52 Noroeste 0 983.3 -1.3 32
2019-09-04 16:00:00 29.1 28 Noroeste 46 Noroeste 0 983.5 -1.8 27
2019-09-04 15:00:00 28.4 22 Noroeste 34 Noroeste 0 984 -1.8 29
2019-09-04 14:00:00 26.9 17 Oeste -- -- 0 984.6 -1.6 30
2019-09-04 13:00:00 25.3 16 Noroeste 26 Noroeste 0 985.3 -1 33
2019-09-04 12:00:00 22.9 13 Noroeste 23 Noroeste 0 985.8 -0.5 41
2019-09-04 11:00:00 20.6 12 Noroeste 19 Noroeste 0 986.2 0.1 51
2019-09-04 10:00:00 17.5 5 Oeste 9 Oeste 0 986.3 0.5 60
2019-09-04 09:00:00 14.9 3 Sudoeste 6 Oeste 0 986.3 0.6 69
2019-09-04 08:00:00 12.2 3 Noroeste 6 Oeste 0 986.1 0.3 75
2019-09-04 07:00:00 12.4 3 Noroeste 4 Noroeste 0 985.8 0 72
2019-09-04 06:00:00 13.1 2 Norte 8 Noroeste 0 985.7 -0.5 74
2019-09-04 05:00:00 13.8 5 Oeste 6 Noroeste 0 985.8 -0.4 74
2019-09-04 04:00:00 14.5 6 Norte 8 Oeste 0 985.8 -0.6 72
2019-09-04 03:00:00 15.3 5 Sur 7 Este 0 986.2 0.1 69
2019-09-04 02:00:00 16.1 9 Oeste 13 Oeste 0 986.2 0.1 68
2019-09-04 01:00:00 17.4 5 Sudoeste 15 Oeste 0 986.4 1.1 65
2019-09-04 00:00:00 18.8 13 Oeste 15 Oeste 0 986.1 1.5 60
2019-09-03 23:00:00 20.5 6 Noroeste 21 Noroeste 0 986.1 1.8 54
2019-09-03 22:00:00 21.7 15 Noroeste 22 Noroeste 0 985.3 1.1 49
2019-09-03 21:00:00 24.2 13 Noroeste 19 Noroeste 0 984.6 0.1 37
2019-09-03 20:00:00 27.9 14 Noroeste 28 Noroeste 0 984.3 -0.7 25
2019-09-03 19:00:00 29.4 14 Noroeste 26 Noroeste 0 984.2 -1.3 21
2019-09-03 18:00:00 29.8 16 Oeste 27 Oeste 0 984.5 -1.5 22
2019-09-03 17:00:00 29.5 18 Oeste 28 Oeste 0 985 -1.6 24
2019-09-03 16:00:00 29.1 13 Oeste 31 Oeste 0 985.5 -1.9 25
2019-09-03 15:00:00 27.5 16 Oeste 29 Oeste 0 986 -2 27
2019-09-03 14:00:00 25.9 13 Oeste 27 Noroeste 0 986.6 -1.6 30
2019-09-03 13:00:00 24 14 Oeste 26 Noroeste 0 987.4 -0.9 35
2019-09-03 12:00:00 22.1 16 Oeste 26 Noroeste 0 988 -0.3 42
2019-09-03 11:00:00 19.9 19 Noroeste 30 Oeste 0 988.2 0.3 50
2019-09-03 10:00:00 17.9 22 Noroeste 31 Oeste 0 988.3 1 58
2019-09-03 09:00:00 15.3 10 Noroeste 18 Noroeste 0 988.3 1.1 69
2019-09-03 08:00:00 13.8 12 Noroeste 26 Noroeste 0 987.9 0.6 73
2019-09-03 07:00:00 14.3 19 Noroeste 34 Noroeste 0 987.3 0 70
2019-09-03 06:00:00 15.1 26 Noroeste 35 Oeste 0 987.2 -0.3 67
2019-09-03 05:00:00 15.2 26 Noroeste 39 Oeste 0 987.3 -0.2 65
2019-09-03 04:00:00 15.7 26 Oeste 41 Noroeste 0 987.3 0.1 64
2019-09-03 03:00:00 16.1 27 Oeste 43 Oeste 0 987.5 0.1 62
2019-09-03 02:00:00 16.2 27 Oeste 42 Noroeste 0 987.5 0.4 62
2019-09-03 01:00:00 16.5 30 Oeste 44 Noroeste 0 987.2 0.6 60
2019-09-03 00:00:00 17 31 Oeste 51 Noroeste 0 987.4 1.6 59
2019-09-02 23:00:00 17.7 37 Noroeste 53 Noroeste 0 987.1 2 57
2019-09-02 22:00:00 18.4 35 Noroeste 50 Noroeste 0 986.6 1.7 56
2019-09-02 21:00:00 19.6 36 Noroeste 49 Noroeste 0 985.8 0.9 52
2019-09-02 20:00:00 21.8 38 Noroeste 54 Noroeste 0 985.1 0 44
2019-09-02 19:00:00 23.2 39 Noroeste 53 Noroeste 0 984.9 -0.6 36
2019-09-02 18:00:00 24.2 36 Noroeste 54 Noroeste 0 984.9 -1.1 34
2019-09-02 17:00:00 24.7 37 Noroeste 58 Noroeste 0 985.1 -1.2 30
2019-09-02 16:00:00 24.4 36 Noroeste 52 Oeste 0 985.5 -1.2 33
2019-09-02 15:00:00 23.6 38 Noroeste 57 Noroeste 0 986 -1.1 37
2019-09-02 14:00:00 22.7 38 Noroeste 58 Oeste 0 986.3 -1.2 41
2019-09-02 13:00:00 22.3 33 Noroeste 55 Noroeste 0 986.7 -0.4 41
2019-09-02 12:00:00 20.9 36 Noroeste 52 Oeste 0 987.1 0.2 44
2019-09-02 11:00:00 19.5 36 Noroeste 52 Noroeste 0 987.5 1.2 45
2019-09-02 10:00:00 18.2 36 Oeste 49 Oeste 0 987.1 1.4 51
2019-09-02 09:00:00 17 31 Noroeste 44 Noroeste 0 986.9 1.5 58
2019-09-02 08:00:00 16 29 Noroeste 54 Noroeste 0 986.3 0.9 63
2019-09-02 07:00:00 16.1 32 Noroeste 48 Noroeste 0 985.7 0.5 64
2019-09-02 06:00:00 16.2 31 Noroeste 47 Noroeste 0 985.4 0.5 65
2019-09-02 05:00:00 16.4 30 Noroeste 46 Noroeste 0 985.4 0.6 67
2019-09-02 04:00:00 16.5 36 Noroeste 55 Noroeste 0 985.2 0.9 69
2019-09-02 03:00:00 16.9 39 Noroeste 55 Noroeste 0 984.9 0.5 69
2019-09-02 02:00:00 17.9 31 Noroeste 47 Noroeste 0 984.8 0.6 74
2019-09-02 01:00:00 18.6 34 Noroeste 46 Noroeste 0 984.3 0.7 71
2019-09-02 00:00:00 19.5 30 Noroeste 53 Noroeste 0 984.4 1.8 68
2019-09-01 23:00:00 20 32 Noroeste 48 Noroeste 0 984.2 2.9 65
2019-09-01 22:00:00 20.7 35 Noroeste 50 Noroeste 0 983.6 2.9 62
2019-09-01 21:00:00 22.4 30 Noroeste 46 Noroeste 0 982.6 2.1 53
2019-09-01 20:00:00 23.7 35 Noroeste 50 Noroeste 0 981.3 0.7 46
2019-09-01 19:00:00 25.8 35 Noroeste 48 Noroeste 0 980.7 0.2 40
2019-09-01 18:00:00 25.4 37 Noroeste 50 Noroeste 0 980.5 -0.2 44
2019-09-01 17:00:00 25.8 34 Noroeste 49 Noroeste 0 980.6 -0.7 44
2019-09-01 16:00:00 27.8 31 Noroeste 45 Oeste 0 980.5 -1.4 38
2019-09-01 15:00:00 28 29 Noroeste 46 Noroeste 0 980.7 -1.1 38
2019-09-01 14:00:00 26.8 29 Noroeste 44 Noroeste 0 981.3 -0.5 41
2019-09-01 13:00:00 26.3 26 Noroeste 39 Noroeste 0 981.9 0.1 42
2019-09-01 12:00:00 25.4 22 Noroeste 36 Oeste 0 981.8 0.3 47
2019-09-01 11:00:00 23.8 19 Noroeste 27 Noroeste 0 981.8 0.6 53
2019-09-01 10:00:00 21.3 19 Noroeste 28 Noroeste 0 981.8 1 62
2019-09-01 09:00:00 19.4 16 Noroeste 22 Noroeste 0 981.5 1 69
2019-09-01 08:00:00 18.8 17 Noroeste 22 Noroeste 0 981.2 0.4 73
2019-09-01 07:00:00 18.7 14 Oeste 19 Oeste 0 980.8 -0.5 74
2019-09-01 06:00:00 18.9 12 Noroeste 20 Noroeste 0 980.5 -1.1 75
2019-09-01 05:00:00 19.4 14 Oeste 23 Oeste 0 980.8 -0.9 74
2019-09-01 04:00:00 20.2 19 Noroeste 25 Noroeste 0 981.3 -0.2 73
2019-09-01 03:00:00 20.9 21 Noroeste 29 Noroeste 0 981.6 0.3 73
2019-09-01 02:00:00 21.2 20 Noroeste -- -- 0 981.7 0.9 73
2019-09-01 01:00:00 22.1 -- -- -- -- 0 981.5 1.1 68
2019-09-01 00:00:00 22.6 -- -- -- -- 0 981.3 2.1 65
2019-08-31 23:00:00 24.6 18 Noroeste 27 Noroeste 0 980.8 2.3 57
2019-08-31 22:00:00 27.5 3 Noroeste 17 Este 0 980.4 2.3 35
2019-08-31 21:00:00 28.1 9 Este 34 Este 0 979.2 1.1 35
2019-08-31 20:00:00 29.4 26 Nordeste -- -- 0 978.5 0.2 31
2019-08-31 19:00:00 33 6 Sudoeste 28 Sudoeste 0 978.1 -0.8 25
2019-08-31 18:00:00 34.2 18 Sudoeste 24 Sudoeste 0 978.1 -1.6 21
2019-08-31 17:00:00 34.7 15 Oeste 22 Oeste 0 978.3 -2 19
2019-08-31 16:00:00 36 7 Sudeste 19 Este 0 978.9 -2.3 17
2019-08-31 15:00:00 35.3 5 Sur 22 Sudeste 0 979.7 -1.9 20
2019-08-31 14:00:00 33.1 7 Sudoeste 17 Sur 0 980.3 -1.7 30
2019-08-31 13:00:00 31.4 2 Sudoeste 15 Sur 0 981.2 -0.9 34
2019-08-31 12:00:00 29.5 4 Sudoeste 15 Sur 0 981.6 -0.5 38
2019-08-31 11:00:00 27.3 8 Este 18 Este 0 982 0.1 43
2019-08-31 10:00:00 25.3 10 Sudeste 15 Este 0 982.1 0.7 48
2019-08-31 09:00:00 23.1 3 Nordeste 14 Este 0 982.1 0.6 57
2019-08-31 08:00:00 21.4 13 Este 14 Este 0 981.9 0.1 63
2019-08-31 07:00:00 20.6 13 Sudeste 15 Este 0 981.4 -0.3 67
2019-08-31 06:00:00 21.3 -- -- -- -- 0 981.5 -0.6 64
2019-08-31 05:00:00 22 15 Sudeste 32 Este 0 981.8 -0.9 60
2019-08-31 04:00:00 23.6 26 Este 36 Este 0 981.7 -0.7 54
2019-08-31 03:00:00 23.9 19 Este 25 Este 0 982.1 -0.4 52
2019-08-31 02:00:00 23.8 9 Sudeste 17 Sudeste 0 982.7 0.1 53
2019-08-31 01:00:00 25.6 14 Este 23 Este 0 982.4 0.3 47
2019-08-31 00:00:00 27.3 17 Este 23 Este 0 982.5 1 43
2019-08-30 23:00:00 28.9 13 Este -- -- 0 982.6 1.2 37
2019-08-30 22:00:00 28.6 19 Este 26 Este 0 982.1 0.8 40
2019-08-30 21:00:00 31.7 14 Este 19 Este 0 981.5 0 29
2019-08-30 20:00:00 33.9 10 Sudoeste 18 Este 0 981.4 -0.5 23
2019-08-30 19:00:00 34.8 14 Este 21 Este 0 981.3 -1.3 23
2019-08-30 18:00:00 34.9 11 Este 24 Este 0 981.5 -2 24
2019-08-30 17:00:00 34.6 15 Este 34 Este 0 981.9 -2.6 26
2019-08-30 16:00:00 34.1 14 Este 32 Este 0 982.6 -2.9 28
2019-08-30 15:00:00 33 19 Este 35 Este 0 983.5 -2.4 32
2019-08-30 14:00:00 31.8 15 Este 25 Este 0 984.5 -1.8 35
2019-08-30 13:00:00 29.8 7 Sudeste 20 Sudeste 0 985.5 -0.8 42
2019-08-30 12:00:00 27.8 6 Este 14 Este 0 985.9 -0.4 48
2019-08-30 11:00:00 25.6 3 Sur 8 Sudeste 0 986.3 0.3 55
2019-08-30 10:00:00 23.2 0 Calma 4 Nordeste 0 986.3 0.7 64
2019-08-30 09:00:00 21 0 Calma 4 Noroeste 0 986.3 1.2 73
2019-08-30 08:00:00 18.7 5 Noroeste 8 Noroeste 0 986 1.1 80
2019-08-30 07:00:00 19.2 4 Sudoeste 6 Oeste 0 985.6 0.6 79
2019-08-30 06:00:00 19.5 3 Noroeste 10 Oeste 0 985.1 0.1 79
2019-08-30 05:00:00 20.1 6 Oeste 11 Noroeste 0 984.9 -0.1 77
2019-08-30 04:00:00 20.5 9 Noroeste 13 Noroeste 0 985 0.3 78
2019-08-30 03:00:00 21.6 3 Norte 9 Norte 0 985 0.6 72
2019-08-30 02:00:00 22.9 3 Sur 8 Sudoeste 0 985 1 59
2019-08-30 01:00:00 23.6 4 Norte 13 Este 0 984.7 1.5 58
2019-08-30 00:00:00 24 8 Este 13 Sudeste 0 984.4 1.8 59
2019-08-29 23:00:00 26.3 6 Sudeste 17 Sudoeste 0 984 1.5 53
2019-08-29 22:00:00 28.2 14 Sudoeste 19 Sudoeste 0 983.2 0.9 45
2019-08-29 21:00:00 30.3 6 Sudoeste 12 Sudoeste 0 982.6 0.4 37
2019-08-29 20:00:00 32.2 7 Sudoeste 13 Sudoeste 0 982.5 0 31
2019-08-29 19:00:00 33 8 Sur 19 Sudoeste 0 982.3 -0.7 29
2019-08-29 18:00:00 32.7 10 Este 14 Sur 0 982.2 -1.4 29
2019-08-29 17:00:00 34.1 6 Nordeste 24 Este 0 982.5 -1.7 26
2019-08-29 16:00:00 33.5 9 Sudeste 23 Este 0 983 -1.8 28
2019-08-29 15:00:00 31.6 13 Este 25 Este 0 983.6 -1.5 33
2019-08-29 14:00:00 30.6 14 Sudeste 22 Este 0 984.2 -1.2 39
2019-08-29 13:00:00 28.6 7 Sudeste 15 Sur 0 984.8 -0.7 46
2019-08-29 12:00:00 27 5 Sudoeste 10 Sudoeste 0 985.1 -0.1 51
2019-08-29 11:00:00 24.4 3 Este 13 Sudeste 0 985.4 0.6 61
2019-08-29 10:00:00 22.2 3 Sur 7 Oeste 0 985.5 1.2 71
2019-08-29 09:00:00 20.3 0 Calma 7 Noroeste 0 985.2 1.4 77
2019-08-29 08:00:00 17.6 3 Oeste 9 Oeste 0 984.8 0.8 85
2019-08-29 07:00:00 18.3 4 Norte 9 Noroeste 0 984.3 0.5 85
2019-08-29 06:00:00 18.7 6 Noroeste 11 Noroeste 0 983.8 0.4 84
2019-08-29 05:00:00 19.7 8 Oeste 10 Noroeste 0 984 0.7 82
2019-08-29 04:00:00 20.7 5 Noroeste 11 Oeste 0 983.8 0.8 79
2019-08-29 03:00:00 21 2 Oeste 16 Oeste 0 983.4 0.9 78
2019-08-29 02:00:00 21.5 15 Oeste 19 Oeste 0 983.3 1.4 78
2019-08-29 01:00:00 22.6 6 Oeste 9 Oeste 0 983 1.5 60
2019-08-29 00:00:00 24.1 2 Noroeste 14 Norte 0 982.5 1.9 52
2019-08-28 23:00:00 25.2 12 Norte 19 Norte 0 981.9 1.5 48
2019-08-28 22:00:00 25.5 8 Norte 13 Norte 0 981.5 0.9 46
2019-08-28 21:00:00 28.6 9 Sudoeste 13 Sudoeste 0 980.6 -0.2 36
2019-08-28 20:00:00 31.2 12 Sudoeste 17 Sudoeste 0 980.4 -0.6 28
2019-08-28 19:00:00 31.9 5 Nordeste 14 Nordeste 0 980.6 -1 25
2019-08-28 18:00:00 32.2 6 Norte 15 Oeste 0 980.8 -1.2 26
2019-08-28 17:00:00 32 6 Oeste 17 Sudeste 0 981 -1.5 28
2019-08-28 16:00:00 30.9 6 Sudeste 16 Sudeste 0 981.6 -1.2 29
2019-08-28 15:00:00 29.8 6 Sudeste 16 Oeste 0 982 -1.1 34
2019-08-28 14:00:00 28.3 7 Sur 14 Sudoeste 0 982.5 -0.8 40
2019-08-28 13:00:00 26.7 5 Oeste 12 Sudoeste 0 982.8 -0.6 50
2019-08-28 12:00:00 24.9 4 Sudeste 8 Oeste 0 983.1 -0.2 57
2019-08-28 11:00:00 23 4 Oeste 8 Oeste 0 983.3 0.2 64
2019-08-28 10:00:00 20.9 2 Sur 10 Sudoeste 0 983.4 0.4 73
2019-08-28 09:00:00 18 6 Sudoeste 9 Sudoeste 0 983.3 0.5 84
2019-08-28 08:00:00 16.2 3 Oeste 6 Noroeste 0 983.1 0.6 87
2019-08-28 07:00:00 16.6 4 Norte 6 Sur 0 983 0.4 87
2019-08-28 06:00:00 17.4 4 Sudeste 7 Nordeste 0 982.8 0.2 85
2019-08-28 05:00:00 17.7 3 Nordeste 5 Sudeste 0 982.5 0 84
2019-08-28 04:00:00 18.3 6 Sur 7 Sudeste 0 982.6 0 83
2019-08-28 03:00:00 18.9 6 Sudeste 9 Sudeste 0 982.6 0.3 82
2019-08-28 02:00:00 19.7 4 Nordeste 10 Este 0 982.5 0.4 78
2019-08-28 01:00:00 20.8 6 Sudeste 17 Este 0 982.6 0.8 74
2019-08-28 00:00:00 21.3 15 Este 23 Este 0 982.3 1.3 73
2019-08-27 23:00:00 23 13 Este 30 Este 0 982.1 1.8 65
2019-08-27 22:00:00 25 4 Sur 8 Norte 0 981.8 1.8 56
2019-08-27 21:00:00 26.7 3 Sur 12 Sudeste 0 981 0.9 47
2019-08-27 20:00:00 28.1 4 Este 15 Oeste 0 980.3 -0.2 38
2019-08-27 19:00:00 28.8 8 Oeste 17 Oeste 0 980 -0.9 38
2019-08-27 18:00:00 28.7 11 Sur 22 Sudeste 0 980.1 -1.2 39
2019-08-27 17:00:00 28.3 9 Sudoeste 18 Sur 0 980.5 -1.4 41
2019-08-27 16:00:00 27.7 9 Sudoeste 22 Sudoeste 0 980.9 -1.8 43
2019-08-27 15:00:00 27.2 6 Oeste 18 Sudoeste 0 981.3 -1.4 45
2019-08-27 14:00:00 25.7 4 Sudeste 14 Sudoeste 0 981.9 -0.6 55
2019-08-27 13:00:00 23.2 6 Sudoeste 9 Oeste 0 982.7 0.6 67
2019-08-27 12:00:00 -- -- -- -- -- -- -- -- --
2019-08-27 11:00:00 -- -- -- -- -- -- -- -- --
2019-08-27 10:00:00 18.7 6 Sur 10 Sur 0 982.1 1.5 90
2019-08-27 09:00:00 18.1 3 Sur 10 Sudoeste 0 981.5 0.6 88
2019-08-27 08:00:00 17.5 9 Noroeste 13 Noroeste 0 980.4 -0.6 92
2019-08-27 07:00:00 17.6 8 Este 11 Sudeste 0 980.6 -1 91
2019-08-27 06:00:00 17.6 8 Sudeste 10 Este 0 980.9 -0.8 90
2019-08-27 05:00:00 17.8 6 Nordeste 9 Nordeste 0.2 981 -1 89
2019-08-27 04:00:00 18 6 Oeste 20 Sudoeste 0 981.6 0.4 86
2019-08-27 03:00:00 18.4 3 Sur 26 Sudoeste 0 981.7 -0.5 83
2019-08-27 02:00:00 18.6 12 Sudoeste 22 Oeste 0 982 1.5 83
2019-08-27 01:00:00 18.5 14 Norte 25 Noroeste 0.6 981.2 1.5 85
2019-08-27 00:00:00 18.6 14 Oeste -- -- -- 982.2 3.5 83
2019-08-26 23:00:00 21.1 37 Noroeste -- -- 0 980.5 2.2 67
2019-08-26 22:00:00 26 10 Este 20 Sudeste 0 979.7 1.2 54
2019-08-26 21:00:00 27.4 12 Sudeste 23 Este 0 978.7 -0.2 42
2019-08-26 20:00:00 28.5 19 Este 35 Este 0 978.3 -0.8 37
2019-08-26 19:00:00 29.4 30 Este 41 Este 0 978.5 -1.6 33
2019-08-26 18:00:00 30.4 28 Este 42 Este 0 978.9 -1.5 32
2019-08-26 17:00:00 29.9 31 Este 43 Este 0 979.1 -2.1 33
2019-08-26 16:00:00 29.2 27 Este 41 Este 0 980.1 -1.3 35
2019-08-26 15:00:00 28.7 25 Este 39 Este 0 980.4 -2.1 37
2019-08-26 14:00:00 27.8 30 Este 39 Este 0 981.2 -0.9 41
2019-08-26 13:00:00 28.3 20 Este 33 Este 0 981.4 -0.3 39
2019-08-26 12:00:00 25.6 17 Este 26 Este 0 982.5 1.1 46
2019-08-26 11:00:00 23.6 21 Este 27 Este 0 982.1 0.6 56
2019-08-26 10:00:00 21.5 18 Este 27 Este 0 981.7 0.6 63
2019-08-26 09:00:00 20.5 17 Este 24 Este 0 981.4 0.1 64
2019-08-26 08:00:00 19.4 13 Sudeste 19 Este 0 981.5 0 66
2019-08-26 07:00:00 19.8 16 Este 21 Este 0 981.1 -0.3 66
2019-08-26 06:00:00 21 13 Sudeste 29 Este 0 981.3 -0.1 61
2019-08-26 05:00:00 21.3 21 Este 31 Este 0 981.5 0.3 61
2019-08-26 04:00:00 21.6 25 Este 32 Este 0 981.4 0.6 61
2019-08-26 03:00:00 22.3 23 Este 33 Este 0 981.4 0.9 58
2019-08-26 02:00:00 23.1 23 Este 31 Este 0 981.2 0.8 53
2019-08-26 01:00:00 23.2 24 Este 30 Este 0 980.8 0.9 49
2019-08-26 00:00:00 23.9 18 Este 23 Este 0 980.5 1.4 48
2019-08-25 23:00:00 25.1 14 Este 25 Este 0 980.4 1.6 46
2019-08-25 22:00:00 27.2 21 Este 26 Este 0 979.9 0.9 40
2019-08-25 21:00:00 29.6 15 Este 29 Este 0 979.1 -0.3 33
2019-08-25 20:00:00 32.8 23 Este 33 Este 0 978.8 -1 23
2019-08-25 19:00:00 34 19 Este 36 Este 0 979 -1.2 18
2019-08-25 18:00:00 34.4 21 Este 35 Este 0 979.4 -1.4 18
2019-08-25 17:00:00 34.5 23 Este 35 Este 0 979.8 -1.7 16
2019-08-25 16:00:00 33.8 22 Este 33 Este 0 980.2 -1.9 19
2019-08-25 15:00:00 32.8 20 Este 32 Este 0 980.8 -2.1 23
2019-08-25 14:00:00 31.3 21 Este 33 Este 0 981.5 -1.8 28
2019-08-25 13:00:00 30.1 21 Este 32 Este 0 982.1 -1.4 31
2019-08-25 12:00:00 29.1 20 Este 28 Este 0 982.9 -0.2 34
2019-08-25 11:00:00 26.7 5 Sur 10 Sudoeste 0 983.3 0.7 45
2019-08-25 10:00:00 23.8 6 Sudoeste 22 Sudeste 0 983.5 1 53
2019-08-25 09:00:00 22 18 Sudeste 23 Sudeste 0 983.1 0.6 60
2019-08-25 08:00:00 20.4 7 Este 17 Este 0 982.6 0.4 67
2019-08-25 07:00:00 20.5 13 Este 22 Este 0 982.5 0.4 66
2019-08-25 06:00:00 21 14 Sudeste 27 Este 0 982.5 0.5 65
2019-08-25 05:00:00 21.1 19 Este 32 Este 0 982.2 0.3 65
2019-08-25 04:00:00 21.8 26 Este -- -- 0 982.1 0.1 58
2019-08-25 03:00:00 22.4 -- -- -- -- 0 982 0.2 53
2019-08-25 02:00:00 22.7 -- -- -- -- 0 981.9 0.2 55
2019-08-25 01:00:00 24 13 Este 19 Este 0 982 0.7 49
2019-08-25 00:00:00 25 6 Este 21 Este 0 981.8 0.9 46
2019-08-24 23:00:00 25.8 17 Este 21 Este 0 981.7 0.9 35
2019-08-24 22:00:00 27.1 11 Este 16 Este 0 981.3 0.2 33
2019-08-24 21:00:00 30.1 10 Este 19 Sudeste 0 980.9 -0.4 26
2019-08-24 20:00:00 32.8 15 Este 23 Este 0 980.8 -1 21
2019-08-24 19:00:00 33.5 14 Este 25 Este 0 981.1 -1.2 19
2019-08-24 18:00:00 33.6 18 Este 29 Este 0 981.3 -1.4 16
2019-08-24 17:00:00 33.6 19 Este 32 Este 0 981.8 -1.5 17
2019-08-24 16:00:00 33.1 17 Este 30 Nordeste 0 982.3 -1.5 23
2019-08-24 15:00:00 32.2 14 Este 31 Este 0 982.7 -1.5 27
2019-08-24 14:00:00 30.9 19 Este 30 Este 0 983.3 -1.2 31
2019-08-24 13:00:00 29.7 19 Este 28 Este 0 983.8 -0.7 34
2019-08-24 12:00:00 28.5 8 Este 14 Este 0 984.2 -0.1 42
2019-08-24 11:00:00 26.3 3 Sur 9 Sudeste 0 984.5 0.5 48
2019-08-24 10:00:00 23.7 3 Sudoeste 9 Sudoeste 0 984.5 0.6 55
2019-08-24 09:00:00 21.5 8 Sudeste 17 Este 0 984.3 0.5 67
2019-08-24 08:00:00 19 18 Este 22 Este 0 984 0.3 76
2019-08-24 07:00:00 19.1 14 Sudeste 18 Sudeste 0 983.9 0.2 74
2019-08-24 06:00:00 20.2 6 Sur 24 Este 0 983.8 0.2 67
2019-08-24 05:00:00 20.3 19 Este -- -- 0 983.7 0 63
2019-08-24 04:00:00 20.4 15 Este -- -- 0 983.7 0.3 60
2019-08-24 03:00:00 20.7 13 Este -- -- 0 983.6 0.5 60
2019-08-24 02:00:00 21.8 7 Este 13 Este 0 983.7 0.9 56
2019-08-24 01:00:00 21.7 9 Sudeste 20 Este 0 983.4 1 55
2019-08-24 00:00:00 24.7 14 Este 21 Este 0 983.1 1.1 48
2019-08-23 23:00:00 24.7 15 Este 19 Este 0 982.8 0.9 42
2019-08-23 22:00:00 25.4 15 Este 18 Este 0 982.4 0.3 39
2019-08-23 21:00:00 28.2 14 Este 25 Este 0 982 -0.3 30
2019-08-23 20:00:00 31.4 18 Este 23 Este 0 981.9 -0.8 26
2019-08-23 19:00:00 32.1 13 Este 22 Este 0 982.1 -1 24
2019-08-23 18:00:00 32.6 13 Este 24 Este 0 982.3 -1.7 19
2019-08-23 17:00:00 32.3 13 Este 28 Este 0 982.7 -1.9 18
2019-08-23 16:00:00 31.6 18 Este 29 Este 0 983.1 -2.2 29
2019-08-23 15:00:00 30.7 15 Este 30 Este 0 984 -1.7 33
2019-08-23 14:00:00 29.2 20 Este 35 Este 0 984.6 -1.8 37
2019-08-23 13:00:00 27.9 16 Este 30 Este 0 985.3 -1.3 41
2019-08-23 12:00:00 25.7 17 Este 24 Este 0 985.7 -0.9 49
2019-08-23 11:00:00 23.1 3 Este 9 Sudeste 0 986.4 0.1 49
2019-08-23 10:00:00 18.8 3 Sudoeste 6 Sur 0 986.6 0.6 60
2019-08-23 09:00:00 16.1 3 Este 14 Oeste 0 986.6 0.8 70
2019-08-23 08:00:00 12.8 4 Noroeste 9 Oeste 0 986.3 0.4 79
2019-08-23 07:00:00 13 3 Oeste 7 Oeste 0 986 0 78
2019-08-23 06:00:00 12.9 4 Este 12 Nordeste 0 985.8 -0.2 79
2019-08-23 05:00:00 13.5 7 Noroeste 8 Oeste 0 985.9 0.1 79
2019-08-23 04:00:00 14.9 4 Norte 5 Norte 0 986 0.3 73
2019-08-23 03:00:00 15.8 3 Sudeste 6 Sudeste 0 986 0.5 72
2019-08-23 02:00:00 17.1 3 Noroeste 5 Nordeste 0 985.8 0.7 67
2019-08-23 01:00:00 18.2 4 Oeste 10 Oeste 0 985.7 1.1 63
2019-08-23 00:00:00 19.7 10 Oeste 14 Oeste 0 985.5 1.6 57